Time;durP1;ratioP1;P1;durP2;ratioP2;P2;SDS_P1;SDS_P2;PMS_P1;PMS_P2;Temp;Humidity;BMP_temperature;BMP_pressure;BME280_temperature;BME280_humidity;BME280_pressure;Samples;Min_cycle;Max_cycle;Signal;HPM_P1;HPM_P2
2020/12/31 05:00:31;;;;;;;1999.90;999.90;;;2.10;99.90;;;;;;5837896;23;20182;-78
2020/12/31 05:03:00;;;;;;;1999.90;999.90;;;2.10;99.90;;;;;;4930204;29;20245;-78
2020/12/31 05:05:28;;;;;;;1999.90;999.90;;;2.10;99.90;;;;;;4932985;29;20210;-78
2020/12/31 05:07:55;;;;;;;1999.90;999.90;;;2.10;99.90;;;;;;4932611;29;20211;-77
2020/12/31 05:10:22;;;;;;;1999.90;999.90;;;2.10;99.90;;;;;;4930222;29;20199;-78
2020/12/31 05:12:58;;;;;;;1999.90;999.90;;;2.00;99.90;;;;;;4911609;29;20211;-78
2020/12/31 05:15:34;;;;;;;1999.90;999.90;;;1.80;99.90;;;;;;4909619;29;20211;-78
2020/12/31 05:18:21;;;;;;;1999.90;999.90;;;1.80;99.90;;;;;;4904932;29;20271;-77
2020/12/31 05:20:52;;;;;;;1999.90;999.90;;;1.70;99.90;;;;;;4904915;29;20303;-77
2020/12/31 05:23:22;;;;;;;1999.90;999.90;;;1.50;99.90;;;;;;4903961;29;20267;-76
2020/12/31 05:25:49;;;;;;;1999.90;999.90;;;1.40;99.90;;;;;;4904692;29;20212;-78
2020/12/31 05:28:25;;;;;;;1999.90;999.90;;;1.60;99.90;;;;;;4903720;29;20589;-77
2020/12/31 05:30:58;;;;;;;1999.90;999.90;;;1.50;99.90;;;;;;4904498;29;20275;-77
2020/12/31 05:33:29;;;;;;;1999.90;999.90;;;1.60;99.90;;;;;;4904174;29;20207;-77
2020/12/31 05:36:15;;;;;;;1999.90;999.90;;;1.70;99.90;;;;;;4901342;29;20203;-81
2020/12/31 05:38:46;;;;;;;1999.90;999.90;;;1.70;99.90;;;;;;4915565;29;20206;-81
2020/12/31 05:41:16;;;;;;;1999.90;999.90;;;1.70;99.90;;;;;;4921118;29;20222;-80
2020/12/31 05:43:43;;;;;;;1999.90;999.90;;;1.50;99.90;;;;;;4920161;29;20206;-79
2020/12/31 05:46:14;;;;;;;1999.90;999.90;;;1.60;99.90;;;;;;4920466;29;20634;-81
2020/12/31 05:48:43;;;;;;;1999.90;999.90;;;1.60;99.90;;;;;;4925024;29;20227;-81
2020/12/31 05:51:23;;;;;;;1999.90;999.90;;;1.40;99.90;;;;;;4919933;29;20447;-79
2020/12/31 05:53:52;;;;;;;1999.90;999.90;;;1.50;99.90;;;;;;4921423;29;20451;-81
2020/12/31 05:56:21;;;;;;;1999.90;999.90;;;1.60;99.90;;;;;;4920705;29;20218;-80
2020/12/31 05:58:51;;;;;;;1999.90;999.90;;;1.70;99.90;;;;;;4919754;29;20262;-79
2020/12/31 06:01:19;;;;;;;1999.90;999.90;;;1.80;99.90;;;;;;4921778;29;20250;-80
2020/12/31 06:03:48;;;;;;;1999.90;999.90;;;1.80;99.90;;;;;;4921240;29;20635;-80
2020/12/31 06:06:21;;;;;;;1999.90;999.90;;;1.70;99.90;;;;;;4907402;29;20271;-80
2020/12/31 06:08:55;;;;;;;1999.90;999.90;;;1.70;99.90;;;;;;4902422;29;20235;-80
2020/12/31 06:11:32;;;;;;;1999.90;999.90;;;1.80;99.90;;;;;;4903188;29;20612;-81
2020/12/31 06:14:03;;;;;;;1999.90;999.90;;;1.80;99.90;;;;;;4902465;29;20203;-80
2020/12/31 06:16:37;;;;;;;1999.90;999.90;;;1.80;99.90;;;;;;4902234;29;20689;-81
2020/12/31 06:19:30;;;;;;;1999.90;999.90;;;1.90;99.90;;;;;;4900979;29;20282;-80
2020/12/31 06:22:04;;;;;;;1999.90;999.90;;;2.00;99.90;;;;;;4902345;29;20230;-81
2020/12/31 06:24:34;;;;;;;1999.90;999.90;;;2.00;99.90;;;;;;4901950;29;20231;-80
2020/12/31 06:27:11;;;;;;;1999.90;999.90;;;2.10;99.90;;;;;;4902409;29;20219;-81
2020/12/31 06:29:48;;;;;;;1999.90;999.90;;;2.10;99.90;;;;;;4901818;29;20271;-80
2020/12/31 06:32:27;;;;;;;1999.90;999.90;;;2.10;99.90;;;;;;4902158;29;20664;-80
2020/12/31 06:35:05;;;;;;;1999.90;999.90;;;2.00;99.90;;;;;;4902038;29;20211;-80
2020/12/31 06:37:32;;;;;;;1999.90;999.90;;;2.10;99.90;;;;;;4901979;29;20235;-79
2020/12/31 06:40:26;;;;;;;1999.90;999.90;;;2.10;99.90;;;;;;4901095;29;20224;-79
2020/12/31 06:43:04;;;;;;;1999.90;999.90;;;2.00;99.90;;;;;;4894050;29;20732;-81
2020/12/31 06:45:36;;;;;;;1999.90;999.90;;;2.00;99.90;;;;;;4900890;29;20210;-80
2020/12/31 06:48:31;;;;;;;1999.90;999.90;;;2.00;99.90;;;;;;4900825;29;20208;-78
2020/12/31 06:51:00;;;;;;;1999.90;999.90;;;2.00;99.90;;;;;;4900381;29;20228;-82
2020/12/31 06:53:28;;;;;;;1999.90;999.90;;;1.90;99.90;;;;;;4900504;29;20203;-80
2020/12/31 06:55:58;;;;;;;1999.90;999.90;;;1.80;99.90;;;;;;4900493;29;20203;-81
2020/12/31 06:58:26;;;;;;;1999.90;999.90;;;1.90;99.90;;;;;;4900449;29;20218;-81
2020/12/31 07:00:53;;;;;;;1999.90;999.90;;;2.00;99.90;;;;;;4900138;29;20291;-81
2020/12/31 07:03:46;;;;;;;1999.90;999.90;;;2.00;99.90;;;;;;4899575;29;20208;-80
2020/12/31 07:06:26;;;;;;;1999.90;999.90;;;1.90;99.90;;;;;;4899074;29;20659;-80
2020/12/31 07:08:58;;;;;;;1999.90;999.90;;;2.00;99.90;;;;;;4898762;29;20215;-80
2020/12/31 07:11:29;;;;;;;1999.90;999.90;;;2.00;99.90;;;;;;4898894;29;20231;-80
2020/12/31 07:13:56;;;;;;;1999.90;999.90;;;2.00;99.90;;;;;;4897934;29;20211;-78
2020/12/31 07:16:52;;;;;;;1999.90;999.90;;;1.90;99.90;;;;;;4897301;29;20738;-78
2020/12/31 07:19:21;;;;;;;1999.90;999.90;;;1.90;99.90;;;;;;4886273;29;20219;-79
2020/12/31 07:21:50;;;;;;;1999.90;999.90;;;1.90;99.90;;;;;;4898228;29;20227;-78
2020/12/31 07:24:27;;;;;;;1999.90;999.90;;;1.90;99.90;;;;;;4899151;29;20251;-80
2020/12/31 07:26:55;;;;;;;1999.90;999.90;;;1.80;99.90;;;;;;4899241;29;20629;-79
2020/12/31 07:29:28;;;;;;;1999.90;999.90;;;1.90;99.90;;;;;;4897910;29;20661;-77
2020/12/31 07:31:55;;;;;;;1999.90;999.90;;;1.90;99.90;;;;;;4898670;29;20231;-78
2020/12/31 07:34:25;;;;;;;1999.90;999.90;;;1.80;99.90;;;;;;4897331;29;20266;-76
2020/12/31 07:37:13;;;;;;;1999.90;999.90;;;1.80;99.90;;;;;;4898634;29;20630;-78
2020/12/31 07:39:40;;;;;;;1999.90;999.90;;;2.00;99.90;;;;;;4898269;29;20227;-78
2020/12/31 07:42:11;;;;;;;1999.90;999.90;;;1.80;99.90;;;;;;4898335;29;20232;-76
2020/12/31 07:44:56;;;;;;;1999.90;999.90;;;1.90;99.90;;;;;;4898420;29;20669;-78
2020/12/31 07:47:24;;;;;;;1999.90;999.90;;;1.80;99.90;;;;;;4898405;29;20213;-77
2020/12/31 07:49:53;;;;;;;1999.90;999.90;;;1.80;99.90;;;;;;4898144;29;20212;-76
2020/12/31 07:52:20;;;;;;;1999.90;999.90;;;1.70;99.90;;;;;;4898559;29;20283;-78
2020/12/31 07:54:47;;;;;;;1999.90;999.90;;;1.90;99.90;;;;;;4897770;29;20215;-77
2020/12/31 07:57:14;;;;;;;1999.90;999.90;;;1.90;99.90;;;;;;4897110;29;20665;-78
2020/12/31 07:59:44;;;;;;;1999.90;999.90;;;1.90;99.90;;;;;;4898568;29;20823;-78
2020/12/31 08:02:18;;;;;;;1999.90;999.90;;;1.90;99.90;;;;;;4899760;29;20247;-78
2020/12/31 08:04:45;;;;;;;1999.90;999.90;;;2.00;99.90;;;;;;4898901;29;20284;-77
2020/12/31 08:07:16;;;;;;;1999.90;999.90;;;2.00;99.90;;;;;;4898176;29;20211;-78
2020/12/31 08:09:46;;;;;;;1999.90;999.90;;;2.10;99.90;;;;;;4898139;29;20204;-76
2020/12/31 08:12:14;;;;;;;1999.90;999.90;;;2.20;99.90;;;;;;4898832;29;20228;-77
2020/12/31 08:14:41;;;;;;;1999.90;999.90;;;2.30;99.90;;;;;;4901867;29;20279;-77
2020/12/31 08:17:09;;;;;;;1999.90;999.90;;;2.40;99.90;;;;;;4901846;29;20634;-78
2020/12/31 08:19:37;;;;;;;1999.90;999.90;;;2.40;99.90;;;;;;4900991;29;20554;-77
2020/12/31 08:22:10;;;;;;;1999.90;999.90;;;2.30;99.90;;;;;;4902019;29;20306;-78
2020/12/31 08:24:44;;;;;;;1999.90;999.90;;;2.40;99.90;;;;;;4901649;29;20631;-79
2020/12/31 08:27:18;;;;;;;1999.90;999.90;;;2.50;99.90;;;;;;4899443;29;20239;-78
2020/12/31 08:29:48;;;;;;;1999.90;999.90;;;2.60;99.90;;;;;;4901505;29;20582;-78
2020/12/31 08:32:23;;;;;;;1999.90;999.90;;;2.70;99.90;;;;;;4900133;29;20286;-77
2020/12/31 08:34:58;;;;;;;1999.90;999.90;;;2.80;99.90;;;;;;4899749;29;20238;-76
2020/12/31 08:37:27;;;;;;;1999.90;999.90;;;2.90;99.90;;;;;;4900016;29;20740;-76
2020/12/31 08:39:56;;;;;;;1999.90;999.90;;;3.00;99.90;;;;;;4899397;29;20227;-76
2020/12/31 08:42:25;;;;;;;1999.90;999.90;;;3.10;99.90;;;;;;4900722;29;20227;-77
2020/12/31 08:44:56;;;;;;;1999.90;999.90;;;3.20;99.90;;;;;;4901322;29;20219;-77
2020/12/31 08:47:25;;;;;;;1999.90;999.90;;;3.20;99.90;;;;;;4900808;29;20215;-76
2020/12/31 08:49:57;;;;;;;1999.90;999.90;;;3.30;99.90;;;;;;4901185;29;20203;-78
2020/12/31 08:52:27;;;;;;;1999.90;999.90;;;3.30;99.90;;;;;;4901432;29;20723;-78
2020/12/31 08:55:08;;;;;;;1999.90;999.90;;;3.30;99.90;;;;;;4901485;29;20254;-76
2020/12/31 08:57:35;;;;;;;1999.90;999.90;;;3.50;99.90;;;;;;4901001;29;20207;-77
2020/12/31 09:00:05;;;;;;;1999.90;999.90;;;3.50;99.90;;;;;;4900903;29;20281;-79
2020/12/31 09:02:32;;;;;;;1999.90;999.90;;;3.70;99.90;;;;;;4899324;29;20300;-78
2020/12/31 09:05:17;;;;;;;1999.90;999.90;;;3.70;99.90;;;;;;4905412;29;20219;-81
2020/12/31 09:07:45;;;;;;;1999.90;999.90;;;3.90;99.90;;;;;;4904240;29;20620;-82
2020/12/31 09:10:19;;;;;;;1999.90;999.90;;;4.00;99.90;;;;;;4903375;29;20208;-82
2020/12/31 09:12:48;;;;;;;1999.90;999.90;;;4.10;99.90;;;;;;4903673;29;20267;-80
2020/12/31 09:15:21;;;;;;;1999.90;999.90;;;4.20;99.90;;;;;;4903395;29;20211;-81
2020/12/31 09:17:48;;;;;;;1999.90;999.90;;;4.20;99.90;;;;;;4904267;29;20207;-81
2020/12/31 09:20:19;;;;;;;1999.90;999.90;;;4.20;99.90;;;;;;4904013;29;20227;-81
2020/12/31 09:22:47;;;;;;;1999.90;999.90;;;4.30;99.90;;;;;;4905265;29;20207;-82
2020/12/31 09:25:14;;;;;;;1999.90;999.90;;;4.30;99.90;;;;;;4904986;29;20207;-82
2020/12/31 09:27:46;;;;;;;1999.90;999.90;;;4.30;99.90;;;;;;4906389;29;20210;-82
2020/12/31 09:30:18;;;;;;;1999.90;999.90;;;4.30;99.90;;;;;;4905811;29;20203;-81
2020/12/31 09:32:47;;;;;;;1999.90;999.90;;;4.30;99.90;;;;;;4905798;29;20266;-81
2020/12/31 09:35:17;;;;;;;1999.90;999.90;;;4.30;99.90;;;;;;4906362;29;20203;-81
2020/12/31 09:37:49;;;;;;;1999.90;999.90;;;4.40;99.90;;;;;;4905910;29;20271;-82
2020/12/31 09:40:16;;;;;;;1999.90;999.90;;;4.50;99.90;;;;;;4905305;29;20227;-81
2020/12/31 09:42:44;;;;;;;1999.90;999.90;;;4.50;99.90;;;;;;4904652;29;20207;-82
2020/12/31 09:45:11;;;;;;;1999.90;999.90;;;4.40;99.90;;;;;;4904952;29;20231;-82
2020/12/31 09:47:38;;;;;;;1999.90;999.90;;;4.50;99.90;;;;;;4905331;29;20239;-81
2020/12/31 09:50:09;;;;;;;1999.90;999.90;;;4.60;99.90;;;;;;4904641;29;20862;-82
2020/12/31 09:52:38;;;;;;;1999.90;999.90;;;4.70;99.90;;;;;;4907626;29;20272;-81
2020/12/31 09:55:23;;;;;;;1999.90;999.90;;;4.70;99.90;;;;;;4904914;29;20214;-82
2020/12/31 09:57:52;;;;;;;1999.90;999.90;;;4.70;99.90;;;;;;4907440;29;20207;-79
2020/12/31 10:00:20;;;;;;;1999.90;999.90;;;4.60;99.90;;;;;;4907870;29;20248;-81
2020/12/31 10:02:48;;;;;;;1999.90;999.90;;;4.50;99.90;;;;;;4907058;29;20207;-81
2020/12/31 10:05:19;;;;;;;1999.90;999.90;;;4.50;99.90;;;;;;4907504;29;20748;-81
2020/12/31 10:07:46;;;;;;;1999.90;999.90;;;4.50;99.90;;;;;;4908058;29;20597;-82
2020/12/31 10:10:13;;;;;;;1999.90;999.90;;;4.60;99.90;;;;;;4908234;29;20203;-81
2020/12/31 10:12:43;;;;;;;1999.90;999.90;;;4.60;99.90;;;;;;4907915;29;20629;-81
2020/12/31 10:15:11;;;;;;;1999.90;999.90;;;4.70;99.90;;;;;;4907040;29;20745;-82
2020/12/31 10:17:38;;;;;;;1999.90;999.90;;;4.70;99.90;;;;;;4908638;29;20641;-80
2020/12/31 10:20:07;;;;;;;1999.90;999.90;;;4.70;99.90;;;;;;4908772;29;20231;-81
2020/12/31 10:22:34;;;;;;;1999.90;999.90;;;4.70;99.90;;;;;;4905076;29;20590;-80
2020/12/31 10:25:03;;;;;;;1999.90;999.90;;;4.70;99.90;;;;;;4902883;29;20215;-79
2020/12/31 10:27:29;;;;;;;1999.90;999.90;;;4.90;99.90;;;;;;4903906;29;20199;-80
2020/12/31 10:30:03;;;;;;;1999.90;999.90;;;4.90;99.90;;;;;;4910314;29;20222;-81
2020/12/31 10:32:31;;;;;;;1999.90;999.90;;;5.00;99.90;;;;;;4906753;29;20224;-81
2020/12/31 10:34:58;;;;;;;1999.90;999.90;;;5.00;99.90;;;;;;4905259;29;20385;-81
2020/12/31 10:37:28;;;;;;;1999.90;999.90;;;5.10;99.90;;;;;;4905549;29;20207;-81
2020/12/31 10:39:55;;;;;;;1999.90;999.90;;;5.10;99.90;;;;;;4907300;29;20235;-81
2020/12/31 10:42:21;;;;;;;1999.90;999.90;;;5.20;99.90;;;;;;4906458;29;20235;-81
2020/12/31 10:44:48;;;;;;;1999.90;999.90;;;5.30;99.90;;;;;;4904858;29;20263;-81
2020/12/31 10:47:15;;;;;;;1999.90;999.90;;;5.30;99.90;;;;;;4903332;29;20207;-80
2020/12/31 10:49:43;;;;;;;1999.90;999.90;;;5.30;99.90;;;;;;4904669;29;20211;-81
2020/12/31 10:52:14;;;;;;;1999.90;999.90;;;5.40;99.90;;;;;;4903765;29;20603;-82
2020/12/31 10:54:40;;;;;;;1999.90;999.90;;;5.40;99.90;;;;;;4903795;29;20204;-83
2020/12/31 10:57:07;;;;;;;1999.90;999.90;;;5.40;99.90;;;;;;4903251;29;20203;-81
2020/12/31 10:59:34;;;;;;;1999.90;999.90;;;5.40;99.90;;;;;;4903458;29;20675;-82
2020/12/31 11:02:02;;;;;;;1999.90;999.90;;;5.40;99.90;;;;;;4903118;29;20298;-81
2020/12/31 11:04:28;;;;;;;1999.90;999.90;;;5.50;99.90;;;;;;4904050;29;20207;-80
2020/12/31 11:06:57;;;;;;;1999.90;999.90;;;5.50;99.90;;;;;;4903400;29;20707;-81
2020/12/31 11:09:25;;;;;;;1999.90;999.90;;;5.50;99.90;;;;;;4905851;29;20736;-83
2020/12/31 11:11:53;;;;;;;1999.90;999.90;;;5.60;99.90;;;;;;4901767;29;20708;-81
2020/12/31 11:14:23;;;;;;;1999.90;999.90;;;5.60;99.90;;;;;;4903348;29;20211;-80
2020/12/31 11:16:52;;;;;;;1999.90;999.90;;;5.80;99.90;;;;;;4902231;29;20231;-81
2020/12/31 11:19:19;;;;;;;1999.90;999.90;;;5.60;99.90;;;;;;4903909;29;20206;-81
2020/12/31 11:21:50;;;;;;;1999.90;999.90;;;5.70;99.90;;;;;;4899560;29;20231;-78
2020/12/31 11:24:18;;;;;;;1999.90;999.90;;;5.80;99.90;;;;;;4897012;29;20211;-77
2020/12/31 11:26:45;;;;;;;1999.90;999.90;;;5.80;99.90;;;;;;4896755;29;20235;-77
2020/12/31 11:29:13;;;;;;;1999.90;999.90;;;5.80;99.90;;;;;;4897596;29;20630;-79
2020/12/31 11:31:40;;;;;;;1999.90;999.90;;;5.90;99.90;;;;;;4898484;29;20227;-79
2020/12/31 11:34:24;;;;;;;1999.90;999.90;;;6.00;99.90;;;;;;4898203;29;20211;-77
2020/12/31 11:36:51;;;;;;;1999.90;999.90;;;6.00;99.80;;;;;;4898473;29;20267;-79
2020/12/31 11:39:18;;;;;;;1999.90;999.90;;;6.00;99.10;;;;;;4897800;29;20678;-78
2020/12/31 11:41:48;;;;;;;1999.90;999.90;;;5.90;99.10;;;;;;4897950;29;20292;-78
2020/12/31 11:44:15;;;;;;;1999.90;999.90;;;6.00;98.80;;;;;;4897732;29;20624;-77
2020/12/31 11:46:47;;;;;;;1999.90;999.90;;;6.00;98.70;;;;;;4896670;29;20581;-76
2020/12/31 11:49:14;;;;;;;1999.90;999.90;;;5.90;98.50;;;;;;4899009;29;20222;-75
2020/12/31 11:51:41;;;;;;;1999.90;999.90;;;5.90;98.40;;;;;;4902142;29;20231;-79
2020/12/31 11:54:08;;;;;;;1999.90;999.90;;;5.90;98.30;;;;;;4899769;29;20207;-79
2020/12/31 11:56:38;;;;;;;1999.90;999.90;;;5.90;98.70;;;;;;4906304;29;20211;-82
2020/12/31 11:59:07;;;;;;;1999.90;999.90;;;6.50;98.90;;;;;;4907077;29;20211;-80
2020/12/31 12:01:36;;;;;;;1999.90;999.90;;;6.00;98.60;;;;;;4904443;29;20235;-80
2020/12/31 12:04:04;;;;;;;1999.90;999.90;;;6.00;98.60;;;;;;4907990;29;20274;-80
2020/12/31 12:06:33;;;;;;;1999.90;999.90;;;6.10;98.50;;;;;;4910702;29;20274;-78
2020/12/31 12:09:00;;;;;;;1999.90;999.90;;;6.10;98.30;;;;;;4911646;29;20211;-79
2020/12/31 12:11:30;;;;;;;1999.90;999.90;;;6.10;98.20;;;;;;4907046;29;20271;-79
2020/12/31 12:13:59;;;;;;;1999.90;999.90;;;6.10;98.10;;;;;;4909162;29;20676;-80
2020/12/31 12:16:27;;;;;;;1999.90;999.90;;;6.10;98.00;;;;;;4908366;29;20235;-79
2020/12/31 12:22:36;;;;;;;1999.90;999.90;;;6.00;97.90;;;;;;4906022;29;20238;-79
2020/12/31 12:25:07;;;;;;;1999.90;999.90;;;6.50;98.00;;;;;;4904018;29;20223;-82
2020/12/31 12:30:29;;;;;;;1999.90;999.90;;;6.00;98.00;;;;;;4905816;29;20200;-81
2020/12/31 12:32:59;;;;;;;1999.90;999.90;;;6.10;98.50;;;;;;4913233;29;20207;-80
2020/12/31 12:35:26;;;;;;;1999.90;999.90;;;6.10;97.90;;;;;;4913203;29;20204;-81
2020/12/31 12:37:55;;;;;;;1999.90;999.90;;;6.10;98.10;;;;;;4915453;29;20207;-80
2020/12/31 12:40:22;;;;;;;1999.90;999.90;;;6.20;97.80;;;;;;4913830;29;20696;-80
2020/12/31 12:42:49;;;;;;;1999.90;999.90;;;6.10;98.00;;;;;;4916282;29;20200;-80
2020/12/31 12:45:16;;;;;;;1999.90;999.90;;;6.00;98.20;;;;;;4899631;29;20265;-76
2020/12/31 12:47:43;;;;;;;1999.90;999.90;;;6.00;98.20;;;;;;4900406;29;20199;-78
2020/12/31 12:50:10;;;;;;;1999.90;999.90;;;6.00;98.30;;;;;;4913338;29;20240;-80
2020/12/31 12:52:39;;;;;;;1999.90;999.90;;;6.00;98.60;;;;;;4910524;29;20334;-81
2020/12/31 12:55:14;;;;;;;1999.90;999.90;;;6.10;98.80;;;;;;4909743;29;20203;-81
2020/12/31 12:57:43;;;;;;;1999.90;999.90;;;6.10;99.00;;;;;;4906707;29;20222;-80
2020/12/31 13:00:11;;;;;;;1999.90;999.90;;;6.10;99.10;;;;;;4905541;29;20203;-80
2020/12/31 13:02:39;;;;;;;1999.90;999.90;;;6.20;99.20;;;;;;4904115;29;20251;-78
2020/12/31 13:05:08;;;;;;;1999.90;999.90;;;6.20;99.20;;;;;;4901870;29;20255;-80
2020/12/31 13:07:37;;;;;;;1999.90;999.90;;;6.30;99.20;;;;;;4900670;29;20262;-81
2020/12/31 13:10:07;;;;;;;1999.90;999.90;;;6.30;99.20;;;;;;4902652;29;20200;-81
2020/12/31 13:12:35;;;;;;;1999.90;999.90;;;6.20;99.20;;;;;;4901947;29;20247;-81
2020/12/31 13:15:03;;;;;;;1999.90;999.90;;;6.20;99.30;;;;;;4902958;29;20653;-83
2020/12/31 13:17:37;;;;;;;1999.90;999.90;;;6.20;99.30;;;;;;4905016;29;20199;-81
2020/12/31 13:20:05;;;;;;;1999.90;999.90;;;6.30;99.40;;;;;;4888580;29;20208;-80
2020/12/31 13:22:36;;;;;;;1999.90;999.90;;;6.40;99.20;;;;;;4904692;29;20659;-80
2020/12/31 13:25:03;;;;;;;1999.90;999.90;;;6.40;99.00;;;;;;4902998;29;20200;-80
2020/12/31 13:27:47;;;;;;;1999.90;999.90;;;6.40;98.70;;;;;;4881450;29;20825;-75
2020/12/31 13:30:16;;;;;;;1999.90;999.90;;;6.40;99.10;;;;;;4898885;29;20203;-75
2020/12/31 13:32:44;;;;;;;1999.90;999.90;;;6.40;99.10;;;;;;4894071;29;20203;-74
2020/12/31 13:35:12;;;;;;;1999.90;999.90;;;6.40;99.40;;;;;;4897754;29;20207;-74
2020/12/31 13:37:42;;;;;;;1999.90;999.90;;;6.30;99.50;;;;;;4896715;29;20449;-75
2020/12/31 13:40:12;;;;;;;1999.90;999.90;;;6.40;99.40;;;;;;4897847;29;20211;-75
2020/12/31 13:42:39;;;;;;;1999.90;999.90;;;6.30;99.70;;;;;;4897613;29;20215;-75
2020/12/31 13:45:07;;;;;;;1999.90;999.90;;;6.20;99.60;;;;;;4897665;29;20704;-74
2020/12/31 13:47:35;;;;;;;1999.90;999.90;;;6.20;99.60;;;;;;4897174;29;20215;-77
2020/12/31 13:50:03;;;;;;;1999.90;999.90;;;6.20;99.30;;;;;;4897694;29;20243;-77
2020/12/31 13:52:30;;;;;;;1999.90;999.90;;;6.20;99.50;;;;;;4896866;29;20242;-78
2020/12/31 13:54:58;;;;;;;1999.90;999.90;;;6.10;99.20;;;;;;4894535;29;20207;-77
2020/12/31 13:57:25;;;;;;;1999.90;999.90;;;6.10;99.30;;;;;;4896951;29;20628;-77
2020/12/31 13:59:52;;;;;;;1999.90;999.90;;;6.00;99.20;;;;;;4896664;29;20203;-77
2020/12/31 14:02:21;;;;;;;1999.90;999.90;;;5.90;99.60;;;;;;4896768;29;20662;-79
2020/12/31 14:04:48;;;;;;;1999.90;999.90;;;5.80;99.70;;;;;;4902860;29;20588;-79
2020/12/31 14:07:17;;;;;;;1999.90;999.90;;;5.80;99.90;;;;;;4902560;29;20214;-79
2020/12/31 14:09:44;;;;;;;1999.90;999.90;;;5.80;99.90;;;;;;4896847;29;20236;-79
2020/12/31 14:12:14;;;;;;;1999.90;999.90;;;5.90;99.90;;;;;;4900298;29;20224;-78
2020/12/31 14:14:41;;;;;;;1999.90;999.90;;;5.90;99.90;;;;;;4896648;29;20202;-78
2020/12/31 14:17:08;;;;;;;1999.90;999.90;;;5.90;99.90;;;;;;4898339;29;20203;-78
2020/12/31 14:19:35;;;;;;;1999.90;999.90;;;5.80;99.90;;;;;;4899347;29;20262;-79
2020/12/31 14:22:05;;;;;;;1999.90;999.90;;;5.80;99.90;;;;;;4895737;29;20768;-78
2020/12/31 14:24:32;;;;;;;1999.90;999.90;;;5.70;99.90;;;;;;4899426;29;20736;-78
2020/12/31 14:26:59;;;;;;;1999.90;999.90;;;5.70;99.90;;;;;;4897782;29;20247;-76
2020/12/31 14:29:27;;;;;;;1999.90;999.90;;;5.70;99.90;;;;;;4898535;29;20199;-77
2020/12/31 14:31:57;;;;;;;1999.90;999.90;;;5.50;99.90;;;;;;4898911;29;20219;-78
2020/12/31 14:34:25;;;;;;;1999.90;999.90;;;5.50;99.90;;;;;;4898996;29;20199;-79
2020/12/31 14:36:56;;;;;;;1999.90;999.90;;;5.40;99.90;;;;;;4898683;29;20203;-78
2020/12/31 14:39:25;;;;;;;1999.90;999.90;;;5.50;99.90;;;;;;4894466;29;20235;-78
2020/12/31 14:41:54;;;;;;;1999.90;999.90;;;5.50;99.90;;;;;;4898988;29;20322;-78
2020/12/31 14:44:21;;;;;;;1999.90;999.90;;;5.40;99.90;;;;;;4897479;29;20608;-79
2020/12/31 14:46:52;;;;;;;1999.90;999.90;;;5.40;99.90;;;;;;4900041;29;20668;-79
2020/12/31 14:49:19;;;;;;;1999.90;999.90;;;5.30;99.90;;;;;;4900430;29;20203;-79
2020/12/31 14:51:46;;;;;;;1999.90;999.90;;;5.30;99.90;;;;;;4897897;29;20243;-78
2020/12/31 14:54:15;;;;;;;1999.90;999.90;;;5.40;99.90;;;;;;4901820;29;20239;-78
2020/12/31 14:56:42;;;;;;;1999.90;999.90;;;5.40;99.90;;;;;;4898909;29;20222;-79
2020/12/31 14:59:09;;;;;;;1999.90;999.90;;;5.40;99.90;;;;;;4900271;29;20700;-78
2020/12/31 15:01:36;;;;;;;1999.90;999.90;;;5.30;99.90;;;;;;4898002;29;20275;-78
2020/12/31 15:04:04;;;;;;;1999.90;999.90;;;5.30;99.90;;;;;;4895740;29;20232;-78
2020/12/31 15:06:38;;;;;;;1999.90;999.90;;;5.30;99.90;;;;;;4898094;29;20282;-78
2020/12/31 15:09:05;;;;;;;1999.90;999.90;;;5.20;99.90;;;;;;4896216;29;20250;-80
2020/12/31 15:11:32;;;;;;;1999.90;999.90;;;5.10;99.90;;;;;;4900275;29;20227;-81
2020/12/31 15:14:00;;;;;;;1999.90;999.90;;;5.10;99.90;;;;;;4896942;29;20211;-78
2020/12/31 15:16:27;;;;;;;1999.90;999.90;;;5.10;99.90;;;;;;4897970;29;20210;-78
2020/12/31 15:18:58;;;;;;;1999.90;999.90;;;5.10;99.90;;;;;;4897256;29;20576;-78
2020/12/31 15:21:29;;;;;;;1999.90;999.90;;;5.00;99.90;;;;;;4895186;29;20318;-80
2020/12/31 15:23:56;;;;;;;1999.90;999.90;;;5.00;99.90;;;;;;4898728;29;20200;-78
2020/12/31 15:26:24;;;;;;;1999.90;999.90;;;4.90;99.90;;;;;;4897789;29;20207;-78
2020/12/31 15:28:51;;;;;;;1999.90;999.90;;;4.90;99.90;;;;;;4893555;29;20222;-80
2020/12/31 15:31:18;;;;;;;1999.90;999.90;;;4.90;99.90;;;;;;4897725;29;20283;-80
2020/12/31 15:33:48;;;;;;;1999.90;999.90;;;4.80;99.90;;;;;;4897520;29;20259;-80
2020/12/31 15:36:15;;;;;;;1999.90;999.90;;;4.80;99.90;;;;;;4901317;29;20203;-81
2020/12/31 15:38:47;;;;;;;1999.90;999.90;;;4.80;99.90;;;;;;4902895;29;20572;-80
2020/12/31 15:41:15;;;;;;;1999.90;999.90;;;4.70;99.90;;;;;;4900618;29;20653;-81
2020/12/31 15:43:42;;;;;;;1999.90;999.90;;;4.70;99.90;;;;;;4901281;29;20797;-82
2020/12/31 15:46:10;;;;;;;1999.90;999.90;;;4.60;99.90;;;;;;4899377;29;20286;-81
2020/12/31 15:48:39;;;;;;;1999.90;999.90;;;4.60;99.90;;;;;;4899083;29;20215;-81
2020/12/31 15:51:06;;;;;;;1999.90;999.90;;;4.50;99.90;;;;;;4903223;29;20219;-81
2020/12/31 15:53:34;;;;;;;1999.90;999.90;;;4.40;99.90;;;;;;4900778;29;20206;-80
2020/12/31 15:56:01;;;;;;;1999.90;999.90;;;4.30;99.90;;;;;;4898098;29;20560;-80
2020/12/31 15:58:28;;;;;;;1999.90;999.90;;;4.10;99.90;;;;;;4894233;29;20211;-80
2020/12/31 16:00:55;;;;;;;1999.90;999.90;;;4.20;99.90;;;;;;4895681;29;20227;-81
2020/12/31 16:03:22;;;;;;;1999.90;999.90;;;4.20;99.90;;;;;;4896774;29;20266;-82
2020/12/31 16:05:48;;;;;;;1999.90;999.90;;;4.20;99.90;;;;;;4897531;29;20273;-81
2020/12/31 16:08:17;;;;;;;1999.90;999.90;;;4.20;99.90;;;;;;4897700;29;20210;-81
2020/12/31 16:10:44;;;;;;;1999.90;999.90;;;4.20;99.90;;;;;;4897978;29;20227;-81
2020/12/31 16:13:13;;;;;;;1999.90;999.90;;;4.20;99.90;;;;;;4899133;29;20266;-81
2020/12/31 16:15:40;;;;;;;1999.90;999.90;;;4.20;99.90;;;;;;4896679;29;20212;-81
2020/12/31 16:18:08;;;;;;;1999.90;999.90;;;4.10;99.90;;;;;;4896567;29;20211;-81
2020/12/31 16:20:35;;;;;;;1999.90;999.90;;;4.10;99.90;;;;;;4896347;29;20224;-81
2020/12/31 16:23:04;;;;;;;1999.90;999.90;;;4.00;99.90;;;;;;4896779;29;20207;-81
2020/12/31 16:25:31;;;;;;;1999.90;999.90;;;4.00;99.90;;;;;;4896045;29;20266;-80
2020/12/31 16:27:58;;;;;;;1999.90;999.90;;;3.70;99.90;;;;;;4896282;29;20207;-80
2020/12/31 16:30:26;;;;;;;1999.90;999.90;;;4.00;99.90;;;;;;4896169;29;20267;-80
2020/12/31 16:32:56;;;;;;;1999.90;999.90;;;4.00;99.90;;;;;;4896726;29;20199;-78
2020/12/31 16:35:25;;;;;;;1999.90;999.90;;;3.90;99.90;;;;;;4899803;29;20207;-76
2020/12/31 16:37:54;;;;;;;1999.90;999.90;;;3.90;99.90;;;;;;4898795;29;20708;-78
2020/12/31 16:40:23;;;;;;;1999.90;999.90;;;3.80;99.90;;;;;;4894855;29;20219;-77
2020/12/31 16:42:50;;;;;;;1999.90;999.90;;;3.70;99.90;;;;;;4899394;29;20223;-79
2020/12/31 16:45:16;;;;;;;1999.90;999.90;;;3.60;99.90;;;;;;4899282;29;20240;-77
2020/12/31 16:47:45;;;;;;;1999.90;999.90;;;3.50;99.90;;;;;;4898058;29;20214;-77
2020/12/31 16:50:14;;;;;;;1999.90;999.90;;;3.50;99.90;;;;;;4899451;29;20217;-78
2020/12/31 16:52:47;;;;;;;1999.90;999.90;;;3.40;99.90;;;;;;4900407;29;20666;-78
2020/12/31 16:55:14;;;;;;;1999.90;999.90;;;3.40;99.90;;;;;;4899098;29;20275;-78
2020/12/31 16:57:42;;;;;;;1999.90;999.90;;;3.40;99.90;;;;;;4899359;29;20245;-78
2020/12/31 17:00:10;;;;;;;1999.90;999.90;;;3.40;99.90;;;;;;4899352;29;20669;-78
2020/12/31 17:02:39;;;;;;;1999.90;999.90;;;3.40;99.90;;;;;;4899189;29;20231;-79
2020/12/31 17:05:08;;;;;;;1999.90;999.90;;;3.30;99.90;;;;;;4899886;29;20211;-77
2020/12/31 17:07:38;;;;;;;1999.90;999.90;;;3.30;99.90;;;;;;4900662;29;20267;-78
2020/12/31 17:10:06;;;;;;;1999.90;999.90;;;3.20;99.90;;;;;;4899441;29;20211;-77
2020/12/31 17:12:32;;;;;;;1999.90;999.90;;;3.20;99.90;;;;;;4899670;29;20235;-79
2020/12/31 17:14:59;;;;;;;1999.90;999.90;;;3.30;99.90;;;;;;4899117;29;20824;-78
2020/12/31 17:17:26;;;;;;;1999.90;999.90;;;3.20;99.90;;;;;;4897323;29;20270;-79
2020/12/31 17:19:53;;;;;;;1999.90;999.90;;;3.30;99.90;;;;;;4898554;29;20295;-78
2020/12/31 17:22:22;;;;;;;1999.90;999.90;;;3.20;99.90;;;;;;4898245;29;20231;-78
2020/12/31 17:24:51;;;;;;;1999.90;999.90;;;3.30;99.90;;;;;;4898940;29;20211;-78
2020/12/31 17:27:18;;;;;;;1999.90;999.90;;;3.30;99.90;;;;;;4899936;29;20219;-80